createdAt,value
2019-03-25T00:01:42.445Z,3.97
2019-03-25T00:04:13.179Z,3.93
2019-03-25T00:06:43.891Z,4.67
2019-03-25T00:09:14.636Z,4.37
2019-03-25T00:11:45.325Z,3.80
2019-03-25T00:14:16.100Z,3.40
2019-03-25T00:16:46.795Z,4.87
2019-03-25T00:19:17.497Z,4.80
2019-03-25T00:21:48.197Z,4.57
2019-03-25T00:24:18.936Z,5.27
2019-03-25T00:26:49.598Z,5.03
2019-03-25T00:29:20.331Z,4.77
2019-03-25T00:31:53.117Z,4.50
2019-03-25T00:34:23.802Z,4.70
2019-03-25T00:36:54.535Z,5.47
2019-03-25T00:39:25.227Z,5.40
2019-03-25T00:41:55.931Z,4.97
2019-03-25T00:44:26.636Z,5.00
2019-03-25T00:46:57.323Z,5.80
2019-03-25T00:49:28.035Z,5.50
2019-03-25T00:51:58.714Z,5.47
2019-03-25T00:54:30.379Z,5.63
2019-03-25T00:57:01.055Z,5.50
2019-03-25T00:59:31.747Z,5.40
2019-03-25T01:02:02.444Z,5.10
2019-03-25T01:04:33.216Z,5.17
2019-03-25T01:07:03.922Z,5.30
2019-03-25T01:09:34.623Z,5.70
2019-03-25T01:12:05.292Z,5.50
2019-03-25T01:14:36.028Z,6.70
2019-03-25T01:17:06.719Z,6.17
2019-03-25T01:19:37.427Z,5.63
2019-03-25T01:22:08.095Z,5.47
2019-03-25T01:24:38.887Z,5.33
2019-03-25T01:27:09.611Z,5.63
2019-03-25T01:29:40.304Z,5.50
2019-03-25T01:32:11.003Z,6.00
2019-03-25T01:34:41.710Z,5.60
2019-03-25T01:37:12.415Z,5.40
2019-03-25T01:39:43.142Z,5.40
2019-03-25T01:42:13.876Z,5.07
2019-03-25T01:44:44.575Z,6.33
2019-03-25T01:47:15.244Z,5.80
2019-03-25T01:49:45.928Z,5.30
2019-03-25T01:52:16.677Z,5.10
2019-03-25T01:54:47.386Z,5.50
2019-03-25T01:57:18.055Z,5.00
2019-03-25T01:59:48.745Z,5.30
2019-03-25T02:02:19.411Z,5.13
2019-03-25T02:04:50.123Z,5.53
2019-03-25T02:07:20.811Z,5.47
2019-03-25T02:09:51.515Z,5.43
2019-03-25T02:12:22.199Z,5.60
2019-03-25T02:14:52.891Z,5.67
2019-03-25T02:17:23.572Z,7.10
2019-03-25T02:19:54.275Z,5.67
2019-03-25T02:22:25.017Z,6.00
2019-03-25T02:24:55.807Z,5.63
2019-03-25T02:27:26.506Z,5.97
2019-03-25T02:29:57.295Z,7.50
2019-03-25T02:32:27.971Z,5.90
2019-03-25T02:34:58.668Z,6.37
2019-03-25T02:37:29.340Z,6.40
2019-03-25T02:40:00.027Z,6.40
2019-03-25T02:42:30.711Z,5.80
2019-03-25T02:45:01.389Z,5.27
2019-03-25T02:47:33.246Z,6.30
2019-03-25T02:50:03.960Z,5.67
2019-03-25T02:52:34.640Z,6.23
2019-03-25T02:55:05.657Z,7.13
2019-03-25T02:57:37.335Z,5.50
2019-03-25T03:00:08.935Z,6.57
2019-03-25T03:02:39.674Z,5.57
2019-03-25T03:05:10.347Z,6.10
2019-03-25T03:07:41.040Z,5.83
2019-03-25T03:10:11.738Z,5.80
2019-03-25T03:12:42.419Z,6.13
2019-03-25T03:15:13.156Z,6.20
2019-03-25T03:17:43.841Z,5.90
2019-03-25T03:20:14.545Z,6.60
2019-03-25T03:22:45.224Z,5.77
2019-03-25T03:25:15.935Z,7.33
2019-03-25T03:27:46.603Z,7.13
2019-03-25T03:30:17.333Z,5.70
2019-03-25T03:32:48.014Z,6.40
2019-03-25T03:35:18.700Z,7.03
2019-03-25T03:37:49.361Z,6.40
2019-03-25T03:40:20.074Z,5.93
2019-03-25T03:42:50.964Z,7.47
2019-03-25T03:45:21.661Z,7.13
2019-03-25T03:47:53.302Z,6.63
2019-03-25T03:50:28.369Z,6.43
2019-03-25T03:52:59.359Z,6.80
2019-03-25T03:55:31.385Z,6.80
2019-03-25T03:58:02.152Z,6.50
2019-03-25T04:00:34.291Z,6.80
2019-03-25T04:03:04.969Z,5.90
2019-03-25T04:05:36.635Z,6.80
2019-03-25T04:08:07.309Z,5.90
2019-03-25T04:10:37.996Z,6.00
2019-03-25T04:13:08.680Z,6.27
2019-03-25T04:15:39.405Z,4.60
2019-03-25T04:18:10.056Z,4.70
2019-03-25T04:20:40.768Z,5.17
2019-03-25T04:23:11.443Z,5.03
2019-03-25T04:25:42.149Z,4.80
2019-03-25T04:28:12.824Z,5.23
2019-03-25T04:30:43.549Z,5.90
2019-03-25T04:33:14.212Z,4.90
2019-03-25T04:35:44.880Z,4.03
2019-03-25T04:38:15.613Z,4.37
2019-03-25T04:40:46.305Z,3.47
2019-03-25T04:43:17.012Z,4.00
2019-03-25T04:45:47.696Z,3.30
2019-03-25T04:48:18.368Z,3.27
2019-03-25T04:50:49.030Z,2.50
2019-03-25T04:53:20.678Z,2.60
2019-03-25T04:55:51.354Z,2.93
2019-03-25T04:58:22.021Z,2.60
2019-03-25T05:00:52.709Z,2.50
2019-03-25T05:03:23.386Z,2.70
2019-03-25T05:05:54.060Z,2.57
2019-03-25T05:08:24.780Z,3.47
2019-03-25T05:10:55.491Z,2.93
2019-03-25T05:13:26.191Z,3.40
2019-03-25T05:15:56.881Z,3.70
2019-03-25T05:18:27.570Z,3.53
2019-03-25T05:21:00.998Z,3.87
2019-03-25T05:23:31.727Z,3.93
2019-03-25T05:26:02.439Z,4.93
2019-03-25T05:28:35.981Z,3.53
2019-03-25T05:31:06.650Z,3.70
2019-03-25T05:33:37.366Z,4.20
2019-03-25T05:36:08.067Z,4.13
2019-03-25T05:38:38.760Z,3.90
2019-03-25T05:41:09.461Z,4.33
2019-03-25T05:43:41.359Z,4.87
2019-03-25T05:46:12.044Z,4.33
2019-03-25T05:48:42.744Z,4.97
2019-03-25T05:51:13.412Z,4.50
2019-03-25T05:53:44.120Z,4.40
2019-03-25T05:56:14.789Z,3.67
2019-03-25T05:58:45.496Z,4.00
2019-03-25T06:01:16.385Z,3.70
2019-03-25T06:03:47.081Z,4.80
2019-03-25T06:06:17.763Z,3.17
2019-03-25T06:08:48.512Z,4.30
2019-03-25T06:11:19.221Z,3.33
2019-03-25T06:13:50.883Z,3.43
2019-03-25T06:16:21.547Z,3.70
2019-03-25T06:18:52.242Z,4.13
2019-03-25T06:21:22.927Z,3.77
2019-03-25T06:23:53.700Z,3.37
2019-03-25T06:26:24.394Z,3.20
2019-03-25T06:28:55.072Z,4.40
2019-03-25T06:31:25.742Z,3.70
2019-03-25T06:33:56.514Z,3.47
2019-03-25T06:36:27.207Z,3.13
2019-03-25T06:38:57.904Z,2.87
2019-03-25T06:41:28.580Z,4.33
2019-03-25T06:43:59.284Z,3.20
2019-03-25T06:46:30.924Z,3.70
2019-03-25T06:49:01.627Z,5.10
2019-03-25T06:51:32.307Z,4.30
2019-03-25T06:54:03.006Z,4.40
2019-03-25T06:56:33.711Z,4.10
2019-03-25T06:59:04.439Z,4.30
2019-03-25T07:01:35.116Z,3.83
2019-03-25T07:04:05.892Z,4.37
2019-03-25T07:06:36.615Z,4.80
2019-03-25T07:09:08.208Z,3.53
2019-03-25T07:11:40.227Z,4.00
2019-03-25T07:14:10.964Z,4.10
2019-03-25T07:16:41.665Z,4.10
2019-03-25T07:19:12.329Z,4.20
2019-03-25T07:21:43.027Z,4.90
2019-03-25T07:24:13.721Z,4.77
2019-03-25T07:26:44.407Z,4.80
2019-03-25T07:29:15.076Z,4.47
2019-03-25T07:31:45.764Z,4.87
2019-03-25T07:34:16.463Z,4.00
2019-03-25T07:36:47.150Z,3.90
2019-03-25T07:39:17.815Z,3.40
2019-03-25T07:41:48.507Z,5.17
2019-03-25T07:44:19.200Z,4.87
2019-03-25T07:46:49.889Z,3.80
2019-03-25T07:49:20.613Z,4.70
2019-03-25T07:51:58.266Z,4.33
2019-03-25T07:54:28.934Z,3.90
2019-03-25T07:56:59.689Z,4.10
2019-03-25T07:59:30.364Z,5.40
2019-03-25T08:02:01.083Z,4.53
2019-03-25T08:04:31.739Z,3.93
2019-03-25T08:07:02.461Z,4.57
2019-03-25T08:09:33.132Z,3.87
2019-03-25T08:12:03.875Z,3.27
2019-03-25T08:14:34.710Z,4.30
2019-03-25T08:17:05.491Z,3.90
2019-03-25T08:19:36.170Z,3.83
2019-03-25T08:22:06.861Z,3.20
2019-03-25T08:24:37.539Z,2.93
2019-03-25T08:27:08.248Z,3.87
2019-03-25T08:29:38.928Z,3.10
2019-03-25T08:32:09.681Z,2.93
2019-03-25T08:34:40.373Z,2.97
2019-03-25T08:37:11.056Z,3.10
2019-03-25T08:39:41.734Z,2.67
2019-03-25T08:42:12.599Z,2.23
2019-03-25T08:44:43.311Z,3.00
2019-03-25T08:47:14.120Z,3.60
2019-03-25T08:49:44.812Z,2.40
2019-03-25T08:52:15.577Z,2.23
2019-03-25T08:54:46.256Z,2.80
2019-03-25T08:57:16.953Z,1.87
2019-03-25T08:59:47.676Z,2.47
2019-03-25T09:02:18.392Z,2.13
2019-03-25T09:04:49.116Z,2.13
2019-03-25T09:07:19.833Z,2.00
2019-03-25T09:09:50.496Z,1.97
2019-03-25T09:12:21.193Z,2.43
2019-03-25T09:14:51.860Z,3.20
2019-03-25T09:17:22.587Z,2.80
2019-03-25T09:19:53.260Z,2.70
2019-03-25T09:22:23.971Z,2.70
2019-03-25T09:24:54.637Z,3.40
2019-03-25T09:27:25.337Z,3.27
2019-03-25T09:29:56.078Z,3.30
2019-03-25T09:32:26.827Z,2.90
2019-03-25T09:34:57.495Z,2.50
2019-03-25T09:37:28.195Z,2.30
2019-03-25T09:39:58.911Z,2.93
2019-03-25T09:42:29.598Z,3.20
2019-03-25T09:45:00.402Z,2.70
2019-03-25T09:47:31.103Z,2.30
2019-03-25T09:50:01.792Z,3.30
2019-03-25T09:52:38.441Z,3.00
2019-03-25T09:55:05.564Z,2.70
2019-03-25T09:57:36.251Z,2.73
2019-03-25T10:00:09.538Z,3.03
2019-03-25T10:02:40.251Z,2.70
2019-03-25T10:05:12.043Z,2.53
2019-03-25T10:07:43.779Z,2.40
2019-03-25T10:10:14.586Z,2.23
2019-03-25T10:12:45.406Z,1.60
2019-03-25T10:15:17.572Z,1.80
2019-03-25T10:17:51.240Z,2.30
2019-03-25T10:20:21.906Z,2.37
2019-03-25T10:22:52.599Z,2.80
2019-03-25T10:25:23.287Z,1.80
2019-03-25T10:27:53.989Z,1.90
2019-03-25T10:30:24.916Z,2.17
2019-03-25T10:32:55.624Z,1.73
2019-03-25T10:35:26.295Z,1.77
2019-03-25T10:37:57.008Z,1.83
2019-03-25T10:40:27.688Z,2.00
2019-03-25T10:42:58.419Z,2.00
2019-03-25T10:45:29.106Z,2.57
2019-03-25T10:47:59.783Z,2.80
2019-03-25T10:50:30.468Z,2.30
2019-03-25T10:53:01.175Z,2.83
2019-03-25T10:55:31.868Z,1.97
2019-03-25T10:58:02.588Z,2.70
2019-03-25T11:00:33.272Z,2.87
2019-03-25T11:03:04.065Z,2.70
2019-03-25T11:05:34.773Z,3.00
2019-03-25T11:08:05.560Z,2.13
2019-03-25T11:10:36.751Z,2.73
2019-03-25T11:13:07.439Z,2.37
2019-03-25T11:15:38.107Z,2.90
2019-03-25T11:18:08.808Z,2.20
2019-03-25T11:20:39.500Z,2.00
2019-03-25T11:23:10.216Z,3.17
2019-03-25T11:25:40.912Z,2.80
2019-03-25T11:28:12.386Z,2.90
2019-03-25T11:30:59.515Z,3.57
2019-03-25T11:33:30.444Z,3.23
2019-03-25T11:36:02.841Z,2.57
2019-03-25T11:38:33.707Z,2.13
2019-03-25T11:41:04.673Z,2.10
2019-03-25T11:43:35.356Z,1.80
2019-03-25T11:46:06.059Z,1.63
2019-03-25T11:48:36.753Z,1.57
2019-03-25T11:51:07.427Z,1.97
2019-03-25T11:53:38.123Z,1.90
2019-03-25T11:56:08.799Z,2.60
2019-03-25T11:58:39.505Z,2.30
2019-03-25T12:01:10.183Z,2.13
2019-03-25T12:03:41.695Z,2.47
2019-03-25T12:06:12.387Z,2.20
2019-03-25T12:08:43.096Z,2.47
2019-03-25T12:11:13.773Z,2.00
2019-03-25T12:13:44.471Z,2.07
2019-03-25T12:16:15.156Z,2.50
2019-03-25T12:18:45.863Z,2.10
2019-03-25T12:21:16.539Z,2.73
2019-03-25T12:23:47.245Z,2.40
2019-03-25T12:26:18.876Z,1.43
2019-03-25T12:28:49.602Z,1.00
2019-03-25T12:31:20.288Z,1.20
2019-03-25T12:33:51.051Z,1.67
2019-03-25T12:36:21.759Z,1.47
2019-03-25T12:38:52.468Z,1.97
2019-03-25T12:41:23.141Z,1.90
2019-03-25T12:43:53.843Z,2.00
2019-03-25T12:46:24.520Z,1.90
2019-03-25T12:48:55.260Z,1.73
2019-03-25T12:51:25.932Z,1.70
2019-03-25T12:53:56.643Z,1.60
2019-03-25T12:56:27.296Z,2.00
2019-03-25T12:58:58.011Z,1.50
2019-03-25T13:01:28.687Z,2.23
2019-03-25T13:04:00.352Z,1.70
2019-03-25T13:06:31.035Z,2.00
2019-03-25T13:09:01.740Z,2.03
2019-03-25T13:11:32.867Z,2.10
2019-03-25T13:14:03.575Z,2.10
2019-03-25T13:16:34.323Z,2.70
2019-03-25T13:19:05.057Z,3.10
2019-03-25T13:21:35.737Z,1.83
2019-03-25T13:24:06.833Z,2.30
2019-03-25T13:26:37.527Z,3.93
2019-03-25T13:29:08.241Z,2.43
2019-03-25T13:31:38.925Z,2.67
2019-03-25T13:34:10.609Z,2.67
2019-03-25T13:36:42.252Z,2.47
2019-03-25T13:39:12.960Z,2.90
2019-03-25T13:41:43.644Z,3.43
2019-03-25T13:44:14.356Z,2.43
2019-03-25T13:46:45.026Z,3.97
2019-03-25T13:49:15.733Z,3.33
2019-03-25T13:51:46.440Z,2.73
2019-03-25T13:54:17.132Z,2.50
2019-03-25T13:56:47.816Z,2.50
2019-03-25T13:59:18.500Z,2.67
2019-03-25T14:01:49.176Z,2.93
2019-03-25T14:04:19.916Z,2.57
2019-03-25T14:06:50.644Z,2.90
2019-03-25T14:09:21.352Z,2.33
2019-03-25T14:11:52.041Z,2.40
2019-03-25T14:14:22.778Z,1.93
2019-03-25T14:16:53.443Z,2.27
2019-03-25T14:19:24.156Z,1.70
2019-03-25T14:21:54.844Z,2.10
2019-03-25T14:24:25.565Z,2.63
2019-03-25T14:26:56.306Z,2.80
2019-03-25T14:29:27.095Z,1.97
2019-03-25T14:31:57.770Z,2.07
2019-03-25T14:34:28.460Z,2.20
2019-03-25T14:36:59.142Z,2.30
2019-03-25T14:39:29.839Z,2.43
2019-03-25T14:42:00.503Z,2.93
2019-03-25T14:44:31.219Z,2.50
2019-03-25T14:47:02.895Z,2.80
2019-03-25T14:49:33.635Z,2.80
2019-03-25T14:52:04.355Z,2.53
2019-03-25T14:54:35.065Z,2.70
2019-03-25T14:57:05.728Z,2.57
2019-03-25T14:59:36.429Z,2.03
2019-03-25T15:02:07.153Z,1.93
2019-03-25T15:04:37.864Z,2.13
2019-03-25T15:07:11.626Z,2.07
2019-03-25T15:09:42.335Z,2.20
2019-03-25T15:12:13.028Z,1.83
2019-03-25T15:14:43.728Z,1.87
2019-03-25T15:17:14.478Z,2.70
2019-03-25T15:19:45.242Z,2.87
2019-03-25T15:22:15.935Z,2.20
2019-03-25T15:24:46.643Z,2.27
2019-03-25T15:27:17.311Z,2.93
2019-03-25T15:29:48.000Z,2.80
2019-03-25T15:32:18.815Z,2.07
2019-03-25T15:34:50.582Z,2.47
2019-03-25T15:37:21.265Z,2.80
2019-03-25T15:39:51.971Z,2.70
2019-03-25T15:42:22.646Z,2.60
2019-03-25T15:44:53.339Z,2.63
2019-03-25T15:47:24.081Z,3.20
2019-03-25T15:49:54.768Z,3.40
2019-03-25T15:52:25.454Z,2.70
2019-03-25T15:54:56.156Z,2.80
2019-03-25T15:57:26.843Z,2.67
2019-03-25T15:59:57.620Z,2.57
2019-03-25T16:02:28.303Z,4.47
2019-03-25T16:04:59.013Z,3.40
2019-03-25T16:07:29.775Z,2.23
2019-03-25T16:10:00.459Z,2.50
2019-03-25T16:12:31.153Z,2.43
2019-03-25T16:15:01.912Z,2.70
2019-03-25T16:17:32.668Z,3.10
2019-03-25T16:20:03.424Z,2.90
2019-03-25T16:22:34.087Z,2.87
2019-03-25T16:25:04.896Z,3.00
2019-03-25T16:27:35.609Z,5.00
2019-03-25T16:30:07.209Z,3.27
2019-03-25T16:32:37.883Z,3.47
2019-03-25T16:35:08.704Z,2.50
2019-03-25T16:37:39.403Z,3.17
2019-03-25T16:40:10.147Z,3.70
2019-03-25T16:42:40.856Z,3.60
2019-03-25T16:45:12.079Z,2.80
2019-03-25T16:47:42.760Z,4.27
2019-03-25T16:50:13.436Z,2.90
2019-03-25T16:52:45.153Z,3.30
2019-03-25T16:55:15.835Z,3.97
2019-03-25T16:57:46.551Z,4.57
2019-03-25T17:00:26.789Z,4.20
2019-03-25T17:02:49.663Z,3.03
2019-03-25T17:05:20.371Z,3.37
2019-03-25T17:07:51.097Z,2.57
2019-03-25T17:10:21.783Z,3.80
2019-03-25T17:12:52.506Z,4.63
2019-03-25T17:15:23.183Z,4.13
2019-03-25T17:17:53.887Z,2.37
2019-03-25T17:20:26.579Z,3.00
2019-03-25T17:22:57.016Z,2.40
2019-03-25T17:25:27.744Z,2.67
2019-03-25T17:27:58.460Z,2.20
2019-03-25T17:30:29.462Z,2.00
2019-03-25T17:33:00.198Z,3.00
2019-03-25T17:35:30.910Z,2.40
2019-03-25T17:38:01.592Z,1.90
2019-03-25T17:40:32.387Z,2.60
2019-03-25T17:43:03.262Z,2.27
2019-03-25T17:45:33.936Z,2.40
2019-03-25T17:48:04.753Z,2.50
2019-03-25T17:50:35.437Z,2.83
2019-03-25T17:53:07.251Z,2.53
2019-03-25T17:55:38.071Z,3.47
2019-03-25T17:58:08.864Z,2.50
2019-03-25T18:01:32.240Z,3.47
2019-03-25T18:04:00.123Z,3.00
2019-03-25T18:06:31.830Z,3.00
2019-03-25T18:09:02.596Z,3.00
2019-03-25T18:11:34.923Z,2.53
2019-03-25T18:14:05.835Z,2.50
2019-03-25T18:16:36.577Z,3.57
2019-03-25T18:19:07.346Z,3.47
2019-03-25T18:21:38.070Z,3.90
2019-03-25T18:24:08.852Z,4.37
2019-03-25T18:26:39.639Z,4.93
2019-03-25T18:29:10.433Z,4.00
2019-03-25T18:31:43.645Z,3.07
2019-03-25T18:34:13.625Z,2.90
2019-03-25T18:36:44.376Z,3.00
2019-03-25T18:39:15.144Z,2.80
2019-03-25T18:41:45.964Z,2.97
2019-03-25T18:44:17.721Z,2.90
2019-03-25T18:46:48.440Z,2.33
2019-03-25T18:49:19.223Z,3.50
2019-03-25T18:51:50.444Z,3.47
2019-03-25T18:54:21.171Z,3.40
2019-03-25T18:56:51.873Z,2.57
2019-03-25T18:59:22.621Z,2.50
2019-03-25T19:01:54.920Z,2.57
2019-03-25T19:04:27.273Z,3.00
2019-03-25T19:06:58.270Z,2.83
2019-03-25T19:09:29.339Z,2.70
2019-03-25T19:12:00.479Z,3.63
2019-03-25T19:14:31.350Z,2.97
2019-03-25T19:17:02.099Z,2.13
2019-03-25T19:19:32.945Z,2.70
2019-03-25T19:22:05.401Z,2.63
2019-03-25T19:24:36.083Z,2.70
2019-03-25T19:27:06.859Z,3.03
2019-03-25T19:29:37.587Z,2.60
2019-03-25T19:32:08.329Z,2.50
2019-03-25T19:34:39.051Z,2.73
2019-03-25T19:37:09.804Z,3.20
2019-03-25T19:39:40.628Z,2.57
2019-03-25T19:42:11.390Z,2.10
2019-03-25T19:44:42.184Z,2.80
2019-03-25T19:47:12.962Z,2.63
2019-03-25T19:49:43.733Z,3.20
2019-03-25T19:52:14.454Z,2.87
2019-03-25T19:54:45.954Z,2.40
2019-03-25T19:57:16.774Z,3.30
2019-03-25T19:59:47.660Z,3.30
2019-03-25T20:02:19.574Z,3.30
2019-03-25T20:04:50.495Z,3.20
2019-03-25T20:07:21.294Z,2.97
2019-03-25T20:09:52.468Z,3.67
2019-03-25T20:12:23.451Z,3.37
2019-03-25T20:14:54.204Z,3.80
2019-03-25T20:17:24.915Z,3.00
2019-03-25T20:19:55.681Z,3.00
2019-03-25T20:22:26.385Z,3.40
2019-03-25T20:24:57.674Z,3.27
2019-03-25T20:27:28.390Z,3.40
2019-03-25T20:29:59.191Z,2.93
2019-03-25T20:32:32.334Z,3.07
2019-03-25T20:35:03.341Z,3.00
2019-03-25T20:37:35.149Z,4.50
2019-03-25T20:40:05.945Z,3.20
2019-03-25T20:42:36.716Z,2.97
2019-03-25T20:45:07.769Z,3.10
2019-03-25T20:47:38.555Z,4.00
2019-03-25T20:50:09.445Z,2.73
2019-03-25T20:52:40.243Z,2.90
2019-03-25T20:55:11.005Z,4.23
2019-03-25T20:57:41.734Z,3.43
2019-03-25T21:00:13.150Z,3.17
2019-03-25T21:02:45.307Z,3.50
2019-03-25T21:05:16.430Z,3.10
2019-03-25T21:07:47.211Z,3.57
2019-03-25T21:10:18.057Z,2.97
2019-03-25T21:12:48.779Z,4.13
2019-03-25T21:15:19.551Z,2.77
2019-03-25T21:17:50.440Z,2.60
2019-03-25T21:20:21.256Z,3.00
2019-03-25T21:22:51.954Z,2.50
2019-03-25T21:25:22.706Z,3.43
2019-03-25T21:27:53.412Z,3.90
2019-03-25T21:30:24.235Z,3.17
2019-03-25T21:32:58.436Z,2.80
2019-03-25T21:35:27.501Z,3.20
2019-03-25T21:37:58.344Z,3.27
2019-03-25T21:40:29.167Z,3.07
2019-03-25T21:42:59.894Z,3.60
2019-03-25T21:45:30.627Z,2.90
2019-03-25T21:48:01.399Z,3.83
2019-03-25T21:50:32.340Z,3.23
2019-03-25T21:53:02.998Z,3.20
2019-03-25T21:55:33.823Z,4.27
2019-03-25T21:58:04.635Z,4.40
2019-03-25T22:00:35.375Z,2.70
2019-03-25T22:03:12.221Z,2.40
2019-03-25T22:05:38.637Z,2.97
2019-03-25T22:08:09.305Z,3.47
2019-03-25T22:10:42.846Z,4.67
2019-03-25T22:13:12.385Z,3.13
2019-03-25T22:15:43.071Z,3.53
2019-03-25T22:18:13.777Z,2.90
2019-03-25T22:20:44.489Z,3.50
2019-03-25T22:23:15.159Z,3.10
2019-03-25T22:25:45.847Z,3.73
2019-03-25T22:28:16.519Z,3.93
2019-03-25T22:30:47.252Z,2.67
2019-03-25T22:33:25.863Z,3.97
2019-03-25T22:35:50.413Z,3.37
2019-03-25T22:38:21.093Z,3.40
2019-03-25T22:40:51.810Z,2.37
2019-03-25T22:43:22.478Z,3.03
2019-03-25T22:45:53.216Z,3.60
2019-03-25T22:48:23.922Z,3.50
2019-03-25T22:50:54.639Z,3.70
2019-03-25T22:53:25.319Z,3.77
2019-03-25T22:55:56.012Z,2.97
2019-03-25T22:58:26.691Z,2.83
2019-03-25T23:00:57.903Z,3.30
2019-03-25T23:03:38.516Z,2.90
2019-03-25T23:06:01.064Z,3.67
2019-03-25T23:08:31.739Z,2.40
2019-03-25T23:11:02.440Z,2.80
2019-03-25T23:13:33.135Z,2.57
2019-03-25T23:16:03.948Z,2.40
2019-03-25T23:18:34.640Z,2.50
2019-03-25T23:21:05.440Z,2.40
2019-03-25T23:23:36.110Z,4.47
2019-03-25T23:26:06.843Z,4.03
2019-03-25T23:28:37.505Z,4.43
2019-03-25T23:31:08.227Z,4.83
2019-03-25T23:33:51.459Z,3.67
2019-03-25T23:36:11.340Z,3.07
2019-03-25T23:38:42.059Z,2.80
2019-03-25T23:41:12.766Z,3.17
2019-03-25T23:43:43.462Z,3.10
2019-03-25T23:46:14.190Z,3.27
2019-03-25T23:48:44.879Z,2.37
2019-03-25T23:51:15.590Z,3.03
2019-03-25T23:53:46.266Z,2.83
2019-03-25T23:56:18.794Z,3.50
2019-03-25T23:58:49.388Z,3.57
